sensor_id;sensor_type;location;lat;lon;timestamp;P1;durP1;ratioP1;P2;durP2;ratioP2
29206;SDS011;16247;50.840;4.382;2024-01-15T00:02:16;36.38;;;16.23;;
29206;SDS011;16247;50.840;4.382;2024-01-15T00:04:41;43.30;;;17.13;;
29206;SDS011;16247;50.840;4.382;2024-01-15T00:07:08;37.30;;;15.55;;
29206;SDS011;16247;50.840;4.382;2024-01-15T00:09:34;36.58;;;16.25;;
29206;SDS011;16247;50.840;4.382;2024-01-15T00:12:00;34.78;;;16.20;;
29206;SDS011;16247;50.840;4.382;2024-01-15T00:14:26;30.80;;;16.50;;
29206;SDS011;16247;50.840;4.382;2024-01-15T00:16:52;34.22;;;15.00;;
29206;SDS011;16247;50.840;4.382;2024-01-15T00:19:20;31.85;;;13.65;;
29206;SDS011;16247;50.840;4.382;2024-01-15T00:21:49;31.65;;;14.85;;
29206;SDS011;16247;50.840;4.382;2024-01-15T00:24:15;31.52;;;14.43;;
29206;SDS011;16247;50.840;4.382;2024-01-15T00:26:41;33.25;;;15.18;;
29206;SDS011;16247;50.840;4.382;2024-01-15T00:29:07;36.25;;;14.63;;
29206;SDS011;16247;50.840;4.382;2024-01-15T00:31:33;32.78;;;13.93;;
29206;SDS011;16247;50.840;4.382;2024-01-15T00:33:58;34.42;;;13.68;;
29206;SDS011;16247;50.840;4.382;2024-01-15T00:36:24;30.65;;;13.48;;
29206;SDS011;16247;50.840;4.382;2024-01-15T00:38:50;29.17;;;12.73;;
29206;SDS011;16247;50.840;4.382;2024-01-15T00:41:16;25.98;;;13.20;;
29206;SDS011;16247;50.840;4.382;2024-01-15T00:43:42;24.67;;;12.40;;
29206;SDS011;16247;50.840;4.382;2024-01-15T00:46:07;29.85;;;14.00;;
29206;SDS011;16247;50.840;4.382;2024-01-15T00:48:33;31.80;;;12.60;;
29206;SDS011;16247;50.840;4.382;2024-01-15T00:50:58;35.05;;;14.38;;
29206;SDS011;16247;50.840;4.382;2024-01-15T00:53:25;26.52;;;11.68;;
29206;SDS011;16247;50.840;4.382;2024-01-15T00:55:50;25.08;;;10.65;;
29206;SDS011;16247;50.840;4.382;2024-01-15T00:58:16;19.92;;;11.30;;
29206;SDS011;16247;50.840;4.382;2024-01-15T01:00:42;23.63;;;11.13;;
29206;SDS011;16247;50.840;4.382;2024-01-15T01:03:07;25.83;;;10.57;;
29206;SDS011;16247;50.840;4.382;2024-01-15T01:05:34;20.08;;;9.52;;
29206;SDS011;16247;50.840;4.382;2024-01-15T01:07:59;21.60;;;10.55;;
29206;SDS011;16247;50.840;4.382;2024-01-15T01:10:25;20.50;;;9.63;;
29206;SDS011;16247;50.840;4.382;2024-01-15T01:12:52;19.02;;;9.20;;
29206;SDS011;16247;50.840;4.382;2024-01-15T01:15:18;18.50;;;9.15;;
29206;SDS011;16247;50.840;4.382;2024-01-15T01:17:44;19.50;;;8.57;;
29206;SDS011;16247;50.840;4.382;2024-01-15T01:20:09;19.42;;;8.40;;
29206;SDS011;16247;50.840;4.382;2024-01-15T01:22:35;17.27;;;8.35;;
29206;SDS011;16247;50.840;4.382;2024-01-15T01:25:01;16.63;;;7.72;;
29206;SDS011;16247;50.840;4.382;2024-01-15T01:27:27;16.13;;;7.65;;
29206;SDS011;16247;50.840;4.382;2024-01-15T01:29:53;16.90;;;8.00;;
29206;SDS011;16247;50.840;4.382;2024-01-15T01:32:18;13.82;;;7.70;;
29206;SDS011;16247;50.840;4.382;2024-01-15T01:34:44;12.80;;;7.32;;
29206;SDS011;16247;50.840;4.382;2024-01-15T01:37:10;12.45;;;6.78;;
29206;SDS011;16247;50.840;4.382;2024-01-15T01:39:40;14.13;;;7.60;;
29206;SDS011;16247;50.840;4.382;2024-01-15T01:42:06;13.40;;;7.30;;
29206;SDS011;16247;50.840;4.382;2024-01-15T01:44:35;17.17;;;7.47;;
29206;SDS011;16247;50.840;4.382;2024-01-15T01:47:01;19.77;;;7.78;;
29206;SDS011;16247;50.840;4.382;2024-01-15T01:49:28;15.60;;;7.45;;
29206;SDS011;16247;50.840;4.382;2024-01-15T01:51:57;15.13;;;6.72;;
29206;SDS011;16247;50.840;4.382;2024-01-15T01:54:25;11.63;;;6.22;;
29206;SDS011;16247;50.840;4.382;2024-01-15T01:56:53;13.30;;;6.82;;
29206;SDS011;16247;50.840;4.382;2024-01-15T01:59:19;10.95;;;6.70;;
29206;SDS011;16247;50.840;4.382;2024-01-15T02:01:46;13.70;;;6.47;;
29206;SDS011;16247;50.840;4.382;2024-01-15T02:04:13;11.65;;;5.82;;
29206;SDS011;16247;50.840;4.382;2024-01-15T02:06:39;11.90;;;6.18;;
29206;SDS011;16247;50.840;4.382;2024-01-15T02:09:05;9.32;;;5.55;;
29206;SDS011;16247;50.840;4.382;2024-01-15T02:11:32;10.15;;;5.68;;
29206;SDS011;16247;50.840;4.382;2024-01-15T02:13:58;10.57;;;5.57;;
29206;SDS011;16247;50.840;4.382;2024-01-15T02:16:23;9.90;;;5.30;;
29206;SDS011;16247;50.840;4.382;2024-01-15T02:18:49;10.25;;;5.00;;
29206;SDS011;16247;50.840;4.382;2024-01-15T02:21:15;9.07;;;5.20;;
29206;SDS011;16247;50.840;4.382;2024-01-15T02:23:40;9.95;;;6.00;;
29206;SDS011;16247;50.840;4.382;2024-01-15T02:26:06;8.75;;;4.78;;
29206;SDS011;16247;50.840;4.382;2024-01-15T02:28:33;9.32;;;5.03;;
29206;SDS011;16247;50.840;4.382;2024-01-15T02:30:59;7.38;;;4.00;;
29206;SDS011;16247;50.840;4.382;2024-01-15T02:33:24;11.98;;;4.53;;
29206;SDS011;16247;50.840;4.382;2024-01-15T02:35:50;8.75;;;4.55;;
29206;SDS011;16247;50.840;4.382;2024-01-15T02:38:15;12.18;;;4.45;;
29206;SDS011;16247;50.840;4.382;2024-01-15T02:40:42;10.65;;;4.57;;
29206;SDS011;16247;50.840;4.382;2024-01-15T02:43:09;9.93;;;5.20;;
29206;SDS011;16247;50.840;4.382;2024-01-15T02:45:34;7.80;;;5.25;;
29206;SDS011;16247;50.840;4.382;2024-01-15T02:48:00;11.00;;;5.78;;
29206;SDS011;16247;50.840;4.382;2024-01-15T02:50:28;11.32;;;6.07;;
29206;SDS011;16247;50.840;4.382;2024-01-15T02:52:53;11.52;;;6.30;;
29206;SDS011;16247;50.840;4.382;2024-01-15T02:55:19;11.00;;;6.47;;
29206;SDS011;16247;50.840;4.382;2024-01-15T02:57:45;13.35;;;7.30;;
29206;SDS011;16247;50.840;4.382;2024-01-15T03:00:10;15.10;;;7.95;;
29206;SDS011;16247;50.840;4.382;2024-01-15T03:02:37;14.30;;;7.95;;
29206;SDS011;16247;50.840;4.382;2024-01-15T03:05:05;21.58;;;9.07;;
29206;SDS011;16247;50.840;4.382;2024-01-15T03:07:31;17.88;;;10.48;;
29206;SDS011;16247;50.840;4.382;2024-01-15T03:09:57;17.40;;;9.52;;
29206;SDS011;16247;50.840;4.382;2024-01-15T03:12:22;16.88;;;9.25;;
29206;SDS011;16247;50.840;4.382;2024-01-15T03:14:48;22.88;;;11.60;;
29206;SDS011;16247;50.840;4.382;2024-01-15T03:17:14;20.17;;;10.40;;
29206;SDS011;16247;50.840;4.382;2024-01-15T03:19:39;21.95;;;10.80;;
29206;SDS011;16247;50.840;4.382;2024-01-15T03:22:05;24.35;;;11.90;;
29206;SDS011;16247;50.840;4.382;2024-01-15T03:24:33;19.48;;;9.68;;
29206;SDS011;16247;50.840;4.382;2024-01-15T03:26:58;21.25;;;10.65;;
29206;SDS011;16247;50.840;4.382;2024-01-15T03:29:25;22.90;;;10.43;;
29206;SDS011;16247;50.840;4.382;2024-01-15T03:31:51;21.73;;;11.02;;
29206;SDS011;16247;50.840;4.382;2024-01-15T03:34:17;23.00;;;11.60;;
29206;SDS011;16247;50.840;4.382;2024-01-15T03:36:42;21.67;;;10.85;;
29206;SDS011;16247;50.840;4.382;2024-01-15T03:39:08;19.80;;;10.70;;
29206;SDS011;16247;50.840;4.382;2024-01-15T03:41:33;23.67;;;11.07;;
29206;SDS011;16247;50.840;4.382;2024-01-15T03:43:59;19.17;;;10.88;;
29206;SDS011;16247;50.840;4.382;2024-01-15T03:46:24;26.70;;;12.88;;
29206;SDS011;16247;50.840;4.382;2024-01-15T03:48:50;30.30;;;12.50;;
29206;SDS011;16247;50.840;4.382;2024-01-15T03:51:19;27.35;;;13.25;;
29206;SDS011;16247;50.840;4.382;2024-01-15T03:53:45;30.35;;;12.90;;
29206;SDS011;16247;50.840;4.382;2024-01-15T03:56:10;31.95;;;13.70;;
29206;SDS011;16247;50.840;4.382;2024-01-15T03:58:36;28.40;;;13.15;;
29206;SDS011;16247;50.840;4.382;2024-01-15T04:01:01;32.67;;;13.82;;
29206;SDS011;16247;50.840;4.382;2024-01-15T04:03:27;29.73;;;14.55;;
29206;SDS011;16247;50.840;4.382;2024-01-15T04:05:53;23.40;;;12.50;;
29206;SDS011;16247;50.840;4.382;2024-01-15T04:08:18;26.45;;;13.15;;
29206;SDS011;16247;50.840;4.382;2024-01-15T04:10:44;27.08;;;12.85;;
29206;SDS011;16247;50.840;4.382;2024-01-15T04:13:10;26.00;;;12.85;;
29206;SDS011;16247;50.840;4.382;2024-01-15T04:15:35;33.33;;;15.10;;
29206;SDS011;16247;50.840;4.382;2024-01-15T04:18:02;32.80;;;15.05;;
29206;SDS011;16247;50.840;4.382;2024-01-15T04:20:27;33.47;;;14.38;;
29206;SDS011;16247;50.840;4.382;2024-01-15T04:22:53;28.73;;;14.93;;
29206;SDS011;16247;50.840;4.382;2024-01-15T04:25:19;31.27;;;14.32;;
29206;SDS011;16247;50.840;4.382;2024-01-15T04:27:44;28.77;;;13.95;;
29206;SDS011;16247;50.840;4.382;2024-01-15T04:30:10;26.67;;;14.00;;
29206;SDS011;16247;50.840;4.382;2024-01-15T04:32:36;30.08;;;15.07;;
29206;SDS011;16247;50.840;4.382;2024-01-15T04:35:02;26.70;;;13.15;;
29206;SDS011;16247;50.840;4.382;2024-01-15T04:37:27;30.70;;;13.48;;
29206;SDS011;16247;50.840;4.382;2024-01-15T04:39:53;28.33;;;13.07;;
29206;SDS011;16247;50.840;4.382;2024-01-15T04:42:20;29.52;;;13.90;;
29206;SDS011;16247;50.840;4.382;2024-01-15T04:44:46;26.73;;;12.90;;
29206;SDS011;16247;50.840;4.382;2024-01-15T04:47:12;24.33;;;12.65;;
29206;SDS011;16247;50.840;4.382;2024-01-15T04:49:38;26.20;;;13.40;;
29206;SDS011;16247;50.840;4.382;2024-01-15T04:52:03;23.75;;;11.50;;
29206;SDS011;16247;50.840;4.382;2024-01-15T04:54:29;28.50;;;12.40;;
29206;SDS011;16247;50.840;4.382;2024-01-15T04:56:54;26.90;;;11.98;;
29206;SDS011;16247;50.840;4.382;2024-01-15T04:59:20;20.83;;;10.80;;
29206;SDS011;16247;50.840;4.382;2024-01-15T05:01:46;23.23;;;10.27;;
29206;SDS011;16247;50.840;4.382;2024-01-15T05:04:12;21.38;;;11.02;;
29206;SDS011;16247;50.840;4.382;2024-01-15T05:06:38;21.27;;;10.32;;
29206;SDS011;16247;50.840;4.382;2024-01-15T05:09:03;18.42;;;9.77;;
29206;SDS011;16247;50.840;4.382;2024-01-15T05:11:29;16.27;;;8.25;;
29206;SDS011;16247;50.840;4.382;2024-01-15T05:13:55;17.90;;;8.32;;
29206;SDS011;16247;50.840;4.382;2024-01-15T05:16:20;13.10;;;7.20;;
29206;SDS011;16247;50.840;4.382;2024-01-15T05:18:46;11.15;;;5.60;;
29206;SDS011;16247;50.840;4.382;2024-01-15T05:21:11;9.15;;;4.82;;
29206;SDS011;16247;50.840;4.382;2024-01-15T05:23:37;8.50;;;3.80;;
29206;SDS011;16247;50.840;4.382;2024-01-15T05:26:03;9.52;;;4.55;;
29206;SDS011;16247;50.840;4.382;2024-01-15T05:28:29;7.63;;;3.15;;
29206;SDS011;16247;50.840;4.382;2024-01-15T05:30:54;5.35;;;2.97;;
29206;SDS011;16247;50.840;4.382;2024-01-15T05:33:21;7.57;;;3.58;;
29206;SDS011;16247;50.840;4.382;2024-01-15T05:35:47;10.45;;;3.10;;
29206;SDS011;16247;50.840;4.382;2024-01-15T05:38:15;7.07;;;3.47;;
29206;SDS011;16247;50.840;4.382;2024-01-15T05:40:41;7.68;;;3.20;;
29206;SDS011;16247;50.840;4.382;2024-01-15T05:43:06;10.70;;;3.60;;
29206;SDS011;16247;50.840;4.382;2024-01-15T05:45:33;4.55;;;2.83;;
29206;SDS011;16247;50.840;4.382;2024-01-15T05:50:26;5.45;;;2.95;;
29206;SDS011;16247;50.840;4.382;2024-01-15T05:52:51;7.53;;;2.70;;
29206;SDS011;16247;50.840;4.382;2024-01-15T05:57:45;11.00;;;3.00;;
29206;SDS011;16247;50.840;4.382;2024-01-15T06:00:11;6.85;;;2.42;;
29206;SDS011;16247;50.840;4.382;2024-01-15T06:02:37;3.35;;;2.00;;
29206;SDS011;16247;50.840;4.382;2024-01-15T06:05:04;3.03;;;2.00;;
29206;SDS011;16247;50.840;4.382;2024-01-15T06:07:30;3.78;;;1.80;;
29206;SDS011;16247;50.840;4.382;2024-01-15T06:09:55;3.30;;;2.05;;
29206;SDS011;16247;50.840;4.382;2024-01-15T06:14:49;5.18;;;2.03;;
29206;SDS011;16247;50.840;4.382;2024-01-15T06:17:15;6.90;;;1.65;;
29206;SDS011;16247;50.840;4.382;2024-01-15T06:19:41;9.65;;;2.05;;
29206;SDS011;16247;50.840;4.382;2024-01-15T06:22:06;3.80;;;1.40;;
29206;SDS011;16247;50.840;4.382;2024-01-15T06:24:32;8.38;;;2.78;;
29206;SDS011;16247;50.840;4.382;2024-01-15T06:26:57;4.07;;;1.35;;
29206;SDS011;16247;50.840;4.382;2024-01-15T06:29:25;7.13;;;2.30;;
29206;SDS011;16247;50.840;4.382;2024-01-15T06:31:51;2.55;;;1.50;;
29206;SDS011;16247;50.840;4.382;2024-01-15T06:34:16;3.88;;;1.40;;
29206;SDS011;16247;50.840;4.382;2024-01-15T06:36:42;7.03;;;2.08;;
29206;SDS011;16247;50.840;4.382;2024-01-15T06:39:08;4.80;;;2.10;;
29206;SDS011;16247;50.840;4.382;2024-01-15T06:41:35;4.28;;;2.05;;
29206;SDS011;16247;50.840;4.382;2024-01-15T06:44:06;7.40;;;2.83;;
29206;SDS011;16247;50.840;4.382;2024-01-15T06:46:32;11.60;;;2.92;;
29206;SDS011;16247;50.840;4.382;2024-01-15T06:49:00;8.23;;;3.20;;
29206;SDS011;16247;50.840;4.382;2024-01-15T06:51:26;7.57;;;2.88;;
29206;SDS011;16247;50.840;4.382;2024-01-15T06:53:51;5.22;;;3.10;;
29206;SDS011;16247;50.840;4.382;2024-01-15T06:56:17;6.72;;;3.47;;
29206;SDS011;16247;50.840;4.382;2024-01-15T06:58:43;9.88;;;4.05;;
29206;SDS011;16247;50.840;4.382;2024-01-15T07:01:08;9.52;;;4.18;;
29206;SDS011;16247;50.840;4.382;2024-01-15T07:03:34;12.60;;;4.00;;
29206;SDS011;16247;50.840;4.382;2024-01-15T07:06:00;7.07;;;3.92;;
29206;SDS011;16247;50.840;4.382;2024-01-15T07:08:25;7.40;;;4.40;;
29206;SDS011;16247;50.840;4.382;2024-01-15T07:10:51;8.88;;;4.38;;
29206;SDS011;16247;50.840;4.382;2024-01-15T07:13:17;10.27;;;5.20;;
29206;SDS011;16247;50.840;4.382;2024-01-15T07:15:42;11.70;;;4.80;;
29206;SDS011;16247;50.840;4.382;2024-01-15T07:18:08;15.27;;;4.95;;
29206;SDS011;16247;50.840;4.382;2024-01-15T07:20:33;9.20;;;4.65;;
29206;SDS011;16247;50.840;4.382;2024-01-15T07:22:59;8.60;;;4.15;;
29206;SDS011;16247;50.840;4.382;2024-01-15T07:25:25;9.48;;;4.85;;
29206;SDS011;16247;50.840;4.382;2024-01-15T07:27:51;10.05;;;5.15;;
29206;SDS011;16247;50.840;4.382;2024-01-15T07:30:18;10.35;;;4.40;;
29206;SDS011;16247;50.840;4.382;2024-01-15T07:32:46;7.70;;;3.95;;
29206;SDS011;16247;50.840;4.382;2024-01-15T07:35:13;7.95;;;4.57;;
29206;SDS011;16247;50.840;4.382;2024-01-15T07:37:39;12.52;;;4.40;;
29206;SDS011;16247;50.840;4.382;2024-01-15T07:40:05;8.80;;;5.03;;
29206;SDS011;16247;50.840;4.382;2024-01-15T07:42:33;11.98;;;5.15;;
29206;SDS011;16247;50.840;4.382;2024-01-15T07:44:59;10.18;;;5.68;;
29206;SDS011;16247;50.840;4.382;2024-01-15T07:47:25;11.07;;;6.28;;
29206;SDS011;16247;50.840;4.382;2024-01-15T07:49:52;14.00;;;6.22;;
29206;SDS011;16247;50.840;4.382;2024-01-15T07:52:18;11.80;;;6.75;;
29206;SDS011;16247;50.840;4.382;2024-01-15T07:54:44;12.07;;;7.13;;
29206;SDS011;16247;50.840;4.382;2024-01-15T07:57:10;11.52;;;6.20;;
29206;SDS011;16247;50.840;4.382;2024-01-15T07:59:36;9.98;;;6.63;;
29206;SDS011;16247;50.840;4.382;2024-01-15T08:02:01;12.38;;;6.32;;
29206;SDS011;16247;50.840;4.382;2024-01-15T08:04:27;11.25;;;6.30;;
29206;SDS011;16247;50.840;4.382;2024-01-15T08:06:53;12.80;;;6.60;;
29206;SDS011;16247;50.840;4.382;2024-01-15T08:09:19;12.70;;;6.82;;
29206;SDS011;16247;50.840;4.382;2024-01-15T08:11:45;12.73;;;7.05;;
29206;SDS011;16247;50.840;4.382;2024-01-15T08:14:10;11.57;;;6.78;;
29206;SDS011;16247;50.840;4.382;2024-01-15T08:16:37;12.82;;;6.35;;
29206;SDS011;16247;50.840;4.382;2024-01-15T08:19:03;11.77;;;6.13;;
29206;SDS011;16247;50.840;4.382;2024-01-15T08:21:28;12.95;;;6.32;;
29206;SDS011;16247;50.840;4.382;2024-01-15T08:23:56;12.20;;;5.53;;
29206;SDS011;16247;50.840;4.382;2024-01-15T08:26:22;13.25;;;6.18;;
29206;SDS011;16247;50.840;4.382;2024-01-15T08:28:47;11.82;;;5.28;;
29206;SDS011;16247;50.840;4.382;2024-01-15T08:31:13;10.00;;;5.30;;
29206;SDS011;16247;50.840;4.382;2024-01-15T08:33:39;13.85;;;4.75;;
29206;SDS011;16247;50.840;4.382;2024-01-15T08:36:04;9.18;;;4.20;;
29206;SDS011;16247;50.840;4.382;2024-01-15T08:38:30;14.93;;;5.18;;
29206;SDS011;16247;50.840;4.382;2024-01-15T08:40:56;10.18;;;4.10;;
29206;SDS011;16247;50.840;4.382;2024-01-15T08:43:24;15.00;;;4.33;;
29206;SDS011;16247;50.840;4.382;2024-01-15T08:45:50;12.02;;;3.35;;
29206;SDS011;16247;50.840;4.382;2024-01-15T08:48:16;8.63;;;2.78;;
29206;SDS011;16247;50.840;4.382;2024-01-15T08:50:42;8.63;;;3.35;;
29206;SDS011;16247;50.840;4.382;2024-01-15T08:53:10;13.77;;;2.63;;
29206;SDS011;16247;50.840;4.382;2024-01-15T08:55:36;8.68;;;2.80;;
29206;SDS011;16247;50.840;4.382;2024-01-15T08:58:02;8.75;;;2.35;;
29206;SDS011;16247;50.840;4.382;2024-01-15T09:00:28;10.57;;;3.05;;
29206;SDS011;16247;50.840;4.382;2024-01-15T09:02:54;11.27;;;3.00;;
29206;SDS011;16247;50.840;4.382;2024-01-15T09:05:19;12.68;;;2.80;;
29206;SDS011;16247;50.840;4.382;2024-01-15T09:07:45;12.27;;;2.22;;
29206;SDS011;16247;50.840;4.382;2024-01-15T09:10:11;8.35;;;2.22;;
29206;SDS011;16247;50.840;4.382;2024-01-15T09:12:36;8.25;;;2.70;;
29206;SDS011;16247;50.840;4.382;2024-01-15T09:15:04;5.43;;;2.08;;
29206;SDS011;16247;50.840;4.382;2024-01-15T09:17:31;12.63;;;3.85;;
29206;SDS011;16247;50.840;4.382;2024-01-15T09:19:57;9.50;;;2.40;;
29206;SDS011;16247;50.840;4.382;2024-01-15T09:22:23;10.68;;;2.50;;
29206;SDS011;16247;50.840;4.382;2024-01-15T09:24:48;6.95;;;2.35;;
29206;SDS011;16247;50.840;4.382;2024-01-15T09:27:14;7.65;;;2.70;;
29206;SDS011;16247;50.840;4.382;2024-01-15T09:29:40;6.45;;;2.33;;
29206;SDS011;16247;50.840;4.382;2024-01-15T09:32:08;12.13;;;2.13;;
29206;SDS011;16247;50.840;4.382;2024-01-15T09:34:34;3.20;;;1.50;;
29206;SDS011;16247;50.840;4.382;2024-01-15T09:37:00;9.07;;;1.77;;
29206;SDS011;16247;50.840;4.382;2024-01-15T09:39:26;10.35;;;2.63;;
29206;SDS011;16247;50.840;4.382;2024-01-15T09:41:52;8.52;;;2.05;;
29206;SDS011;16247;50.840;4.382;2024-01-15T09:44:19;6.18;;;2.25;;
29206;SDS011;16247;50.840;4.382;2024-01-15T09:46:46;9.27;;;1.77;;
29206;SDS011;16247;50.840;4.382;2024-01-15T09:49:14;8.35;;;1.75;;
29206;SDS011;16247;50.840;4.382;2024-01-15T09:51:40;9.23;;;1.80;;
29206;SDS011;16247;50.840;4.382;2024-01-15T09:54:06;4.32;;;1.60;;
29206;SDS011;16247;50.840;4.382;2024-01-15T09:56:33;9.55;;;1.90;;
29206;SDS011;16247;50.840;4.382;2024-01-15T09:59:00;10.55;;;2.20;;
29206;SDS011;16247;50.840;4.382;2024-01-15T10:01:26;10.82;;;2.03;;
29206;SDS011;16247;50.840;4.382;2024-01-15T10:03:52;8.00;;;2.67;;
29206;SDS011;16247;50.840;4.382;2024-01-15T10:06:19;12.18;;;2.13;;
29206;SDS011;16247;50.840;4.382;2024-01-15T10:08:47;7.97;;;1.60;;
29206;SDS011;16247;50.840;4.382;2024-01-15T10:11:15;4.68;;;1.65;;
29206;SDS011;16247;50.840;4.382;2024-01-15T10:13:41;8.65;;;2.00;;
29206;SDS011;16247;50.840;4.382;2024-01-15T10:16:08;10.90;;;2.57;;
29206;SDS011;16247;50.840;4.382;2024-01-15T10:18:34;6.40;;;1.80;;
29206;SDS011;16247;50.840;4.382;2024-01-15T10:21:02;9.10;;;2.42;;
29206;SDS011;16247;50.840;4.382;2024-01-15T10:23:29;7.22;;;1.60;;
29206;SDS011;16247;50.840;4.382;2024-01-15T10:25:57;5.18;;;1.77;;
29206;SDS011;16247;50.840;4.382;2024-01-15T10:28:22;8.77;;;1.52;;
29206;SDS011;16247;50.840;4.382;2024-01-15T10:30:52;6.88;;;2.03;;
29206;SDS011;16247;50.840;4.382;2024-01-15T10:33:21;5.90;;;1.60;;
29206;SDS011;16247;50.840;4.382;2024-01-15T10:35:53;9.32;;;1.90;;
29206;SDS011;16247;50.840;4.382;2024-01-15T10:38:20;13.13;;;2.78;;
29206;SDS011;16247;50.840;4.382;2024-01-15T10:40:47;9.02;;;2.10;;
29206;SDS011;16247;50.840;4.382;2024-01-15T10:43:17;12.85;;;1.92;;
29206;SDS011;16247;50.840;4.382;2024-01-15T10:45:46;5.00;;;1.70;;
29206;SDS011;16247;50.840;4.382;2024-01-15T10:48:12;6.93;;;2.03;;
29206;SDS011;16247;50.840;4.382;2024-01-15T10:50:38;9.20;;;1.63;;
29206;SDS011;16247;50.840;4.382;2024-01-15T10:53:04;7.85;;;1.88;;
29206;SDS011;16247;50.840;4.382;2024-01-15T10:55:34;6.72;;;2.03;;
29206;SDS011;16247;50.840;4.382;2024-01-15T10:58:00;7.57;;;1.85;;
29206;SDS011;16247;50.840;4.382;2024-01-15T11:00:28;12.23;;;2.10;;
29206;SDS011;16247;50.840;4.382;2024-01-15T11:02:54;5.35;;;1.58;;
29206;SDS011;16247;50.840;4.382;2024-01-15T11:05:21;8.40;;;2.05;;
29206;SDS011;16247;50.840;4.382;2024-01-15T11:07:50;9.40;;;1.73;;
29206;SDS011;16247;50.840;4.382;2024-01-15T11:13:04;16.60;;;2.78;;
29206;SDS011;16247;50.840;4.382;2024-01-15T11:15:30;7.85;;;1.70;;
29206;SDS011;16247;50.840;4.382;2024-01-15T11:17:59;5.00;;;1.48;;
29206;SDS011;16247;50.840;4.382;2024-01-15T11:20:26;8.57;;;1.83;;
29206;SDS011;16247;50.840;4.382;2024-01-15T11:22:51;5.60;;;1.75;;
29206;SDS011;16247;50.840;4.382;2024-01-15T11:25:18;6.47;;;1.50;;
29206;SDS011;16247;50.840;4.382;2024-01-15T11:27:48;4.78;;;1.65;;
29206;SDS011;16247;50.840;4.382;2024-01-15T11:30:17;8.18;;;1.50;;
29206;SDS011;16247;50.840;4.382;2024-01-15T11:32:45;5.38;;;1.52;;
29206;SDS011;16247;50.840;4.382;2024-01-15T11:35:12;7.63;;;1.60;;
29206;SDS011;16247;50.840;4.382;2024-01-15T11:40:19;8.05;;;1.75;;
29206;SDS011;16247;50.840;4.382;2024-01-15T11:42:46;5.40;;;1.75;;
29206;SDS011;16247;50.840;4.382;2024-01-15T11:45:13;3.55;;;1.02;;
29206;SDS011;16247;50.840;4.382;2024-01-15T11:50:28;7.75;;;1.75;;
29206;SDS011;16247;50.840;4.382;2024-01-15T11:52:58;7.28;;;1.50;;
29206;SDS011;16247;50.840;4.382;2024-01-15T11:55:35;6.68;;;1.38;;
29206;SDS011;16247;50.840;4.382;2024-01-15T11:58:09;6.03;;;1.40;;
29206;SDS011;16247;50.840;4.382;2024-01-15T12:00:39;8.13;;;1.50;;
29206;SDS011;16247;50.840;4.382;2024-01-15T12:03:17;7.03;;;1.90;;
29206;SDS011;16247;50.840;4.382;2024-01-15T12:05:46;7.78;;;1.60;;
29206;SDS011;16247;50.840;4.382;2024-01-15T12:08:12;8.48;;;1.42;;
29206;SDS011;16247;50.840;4.382;2024-01-15T12:10:39;6.88;;;1.67;;
29206;SDS011;16247;50.840;4.382;2024-01-15T12:13:15;6.03;;;1.37;;
29206;SDS011;16247;50.840;4.382;2024-01-15T12:15:42;6.82;;;1.27;;
29206;SDS011;16247;50.840;4.382;2024-01-15T12:18:09;6.13;;;1.73;;
29206;SDS011;16247;50.840;4.382;2024-01-15T12:20:36;5.72;;;1.35;;
29206;SDS011;16247;50.840;4.382;2024-01-15T12:23:02;5.05;;;1.38;;
29206;SDS011;16247;50.840;4.382;2024-01-15T12:25:28;9.07;;;1.92;;
29206;SDS011;16247;50.840;4.382;2024-01-15T12:27:55;6.53;;;1.38;;
29206;SDS011;16247;50.840;4.382;2024-01-15T12:30:21;5.78;;;1.20;;
29206;SDS011;16247;50.840;4.382;2024-01-15T12:32:47;4.93;;;1.20;;
29206;SDS011;16247;50.840;4.382;2024-01-15T12:35:13;6.10;;;1.00;;
29206;SDS011;16247;50.840;4.382;2024-01-15T12:37:40;4.93;;;2.25;;
29206;SDS011;16247;50.840;4.382;2024-01-15T12:40:06;5.30;;;1.45;;
29206;SDS011;16247;50.840;4.382;2024-01-15T12:42:34;4.88;;;1.50;;
29206;SDS011;16247;50.840;4.382;2024-01-15T12:45:09;8.43;;;1.52;;
29206;SDS011;16247;50.840;4.382;2024-01-15T12:47:36;5.78;;;1.20;;
29206;SDS011;16247;50.840;4.382;2024-01-15T12:50:02;9.18;;;1.42;;
29206;SDS011;16247;50.840;4.382;2024-01-15T12:52:31;6.55;;;1.45;;
29206;SDS011;16247;50.840;4.382;2024-01-15T12:54:57;7.55;;;1.52;;
29206;SDS011;16247;50.840;4.382;2024-01-15T12:57:23;5.68;;;1.58;;
29206;SDS011;16247;50.840;4.382;2024-01-15T12:59:48;6.63;;;1.70;;
29206;SDS011;16247;50.840;4.382;2024-01-15T13:02:15;8.85;;;1.77;;
29206;SDS011;16247;50.840;4.382;2024-01-15T13:04:41;6.35;;;1.48;;
29206;SDS011;16247;50.840;4.382;2024-01-15T13:07:07;11.10;;;1.77;;
29206;SDS011;16247;50.840;4.382;2024-01-15T13:09:33;5.30;;;1.50;;
29206;SDS011;16247;50.840;4.382;2024-01-15T13:12:00;14.27;;;1.58;;
29206;SDS011;16247;50.840;4.382;2024-01-15T13:14:29;7.00;;;2.38;;
29206;SDS011;16247;50.840;4.382;2024-01-15T13:16:55;6.50;;;1.60;;
29206;SDS011;16247;50.840;4.382;2024-01-15T13:19:20;6.85;;;1.40;;
29206;SDS011;16247;50.840;4.382;2024-01-15T13:21:47;7.00;;;1.80;;
29206;SDS011;16247;50.840;4.382;2024-01-15T13:24:13;5.68;;;1.30;;
29206;SDS011;16247;50.840;4.382;2024-01-15T13:26:39;8.52;;;1.98;;
29206;SDS011;16247;50.840;4.382;2024-01-15T13:29:05;8.00;;;1.33;;
29206;SDS011;16247;50.840;4.382;2024-01-15T13:31:31;10.85;;;1.73;;
29206;SDS011;16247;50.840;4.382;2024-01-15T13:33:58;9.57;;;1.80;;
29206;SDS011;16247;50.840;4.382;2024-01-15T13:36:24;3.85;;;1.00;;
29206;SDS011;16247;50.840;4.382;2024-01-15T13:38:50;10.35;;;1.85;;
29206;SDS011;16247;50.840;4.382;2024-01-15T13:41:18;7.60;;;1.63;;
29206;SDS011;16247;50.840;4.382;2024-01-15T13:43:45;9.93;;;2.15;;
29206;SDS011;16247;50.840;4.382;2024-01-15T13:46:12;9.55;;;1.60;;
29206;SDS011;16247;50.840;4.382;2024-01-15T13:48:38;9.27;;;1.65;;
29206;SDS011;16247;50.840;4.382;2024-01-15T13:51:04;10.75;;;1.63;;
29206;SDS011;16247;50.840;4.382;2024-01-15T13:53:30;4.22;;;1.70;;
29206;SDS011;16247;50.840;4.382;2024-01-15T13:55:56;9.55;;;1.58;;
29206;SDS011;16247;50.840;4.382;2024-01-15T13:58:21;7.45;;;1.95;;
29206;SDS011;16247;50.840;4.382;2024-01-15T14:00:47;8.48;;;1.63;;
29206;SDS011;16247;50.840;4.382;2024-01-15T14:03:13;18.42;;;3.10;;
29206;SDS011;16247;50.840;4.382;2024-01-15T14:05:39;10.10;;;1.55;;
29206;SDS011;16247;50.840;4.382;2024-01-15T14:08:05;11.77;;;1.98;;
29206;SDS011;16247;50.840;4.382;2024-01-15T14:10:31;11.63;;;2.13;;
29206;SDS011;16247;50.840;4.382;2024-01-15T14:12:57;6.15;;;1.48;;
29206;SDS011;16247;50.840;4.382;2024-01-15T14:15:23;4.63;;;1.13;;
29206;SDS011;16247;50.840;4.382;2024-01-15T14:17:48;7.45;;;1.45;;
29206;SDS011;16247;50.840;4.382;2024-01-15T14:20:14;10.77;;;1.80;;
29206;SDS011;16247;50.840;4.382;2024-01-15T14:22:40;6.20;;;1.67;;
29206;SDS011;16247;50.840;4.382;2024-01-15T14:25:06;11.90;;;3.50;;
29206;SDS011;16247;50.840;4.382;2024-01-15T14:27:32;7.10;;;1.48;;
29206;SDS011;16247;50.840;4.382;2024-01-15T14:29:58;5.22;;;1.40;;
29206;SDS011;16247;50.840;4.382;2024-01-15T14:32:23;12.10;;;4.05;;
29206;SDS011;16247;50.840;4.382;2024-01-15T14:34:49;8.15;;;1.48;;
29206;SDS011;16247;50.840;4.382;2024-01-15T14:37:14;6.85;;;1.80;;
29206;SDS011;16247;50.840;4.382;2024-01-15T14:39:40;7.97;;;1.58;;
29206;SDS011;16247;50.840;4.382;2024-01-15T14:42:06;6.70;;;1.23;;
29206;SDS011;16247;50.840;4.382;2024-01-15T14:44:31;7.22;;;1.40;;
29206;SDS011;16247;50.840;4.382;2024-01-15T14:46:58;2.83;;;1.23;;
29206;SDS011;16247;50.840;4.382;2024-01-15T14:49:24;6.30;;;2.53;;